Nord Nanami — 3EWR2 — position and weather

sailwx.info

Track history (hours):
 
Tides and Currents Weather Stations Pressure Air Temp Water Temp Dewpoint Dewpoint Depression Visibility Wind Speed Wind Dir Waves Ship Positions

Nord Nanami

Last reported at 2017-Mar-24 14:29 UTC. Time now 2017-Mar-29 07:26 UTC.
Position N 37°15' W 076°06'.

Length 180 m; draft 10 m.

Type: Cargo ship. MMSI: 373694000.

Date/timePositionNaut miles runAvg speedWind from/ knotsBaromVisibWave heightAir tempDewpointWater temp
2017-Mar-24 14:29N 37°15' W 076°06'0 0.1
2017-Mar-24 13:32N 37°15' W 076°06'0 0.0
2017-Mar-24 12:32N 37°15' W 076°06'0 0.0
2017-Mar-24 11:32N 37°15' W 076°06'0 0.0
2017-Mar-24 08:29N 37°15' W 076°06'7 0.4
2017-Mar-23 16:08N 37°08' W 076°09'711.2
2017-Mar-23 15:33N 37°03' W 076°04'10 9.7
2017-Mar-23 14:33N 36°56' W 075°56'8 8.1
2017-Mar-23 13:34N 36°51' W 075°48'  
2017-Mar-16 18:05N 09°32' W 079°50'610.8
2017-Mar-16 17:33N 09°27' W 079°54'9 8.7
2017-Mar-16 16:33N 09°19' W 079°55'2 2.3
2017-Mar-16 15:33N 09°16' W 079°55'1 0.5
2017-Mar-16 14:33N 09°16' W 079°55'5 5.3
2017-Mar-16 13:34N 09°11' W 079°53'  
Track history (hours):
 
Tides and Currents Weather Stations Pressure Air Temp Water Temp Dewpoint Dewpoint Depression Visibility Wind Speed Wind Dir Waves Ship Positions

Nord Nanami

Last reported at 2017-Mar-24 14:29 UTC. Time now 2017-Mar-29 07:26 UTC.
Position N 37°15' W 076°06'.

Length 180 m; draft 10 m.

Type: Cargo ship. MMSI: 373694000.

Date/timePositionNaut miles runAvg speedWind from/ knotsBaromVisibWave heightAir tempDewpointWater temp
2017-Mar-24 14:29N 37°15' W 076°06'0 0.1
2017-Mar-24 13:32N 37°15' W 076°06'0 0.0
2017-Mar-24 12:32N 37°15' W 076°06'0 0.0
2017-Mar-24 11:32N 37°15' W 076°06'0 0.0
2017-Mar-24 08:29N 37°15' W 076°06'7 0.4
2017-Mar-23 16:08N 37°08' W 076°09'711.2
2017-Mar-23 15:33N 37°03' W 076°04'10 9.7
2017-Mar-23 14:33N 36°56' W 075°56'8 8.1
2017-Mar-23 13:34N 36°51' W 075°48'  
2017-Mar-16 18:05N 09°32' W 079°50'610.8
2017-Mar-16 17:33N 09°27' W 079°54'9 8.7
2017-Mar-16 16:33N 09°19' W 079°55'2 2.3
2017-Mar-16 15:33N 09°16' W 079°55'1 0.5
2017-Mar-16 14:33N 09°16' W 079°55'5 5.3
2017-Mar-16 13:34N 09°11' W 079°53'  

Dump ship's entire track history